createdAt,value
2022-12-11T17:31:52.092Z,23.88
2022-12-11T17:34:18.622Z,24.30
2022-12-11T17:36:46.554Z,25.23
2022-12-11T17:39:13.069Z,25.10
2022-12-11T17:41:39.588Z,23.67
2022-12-11T17:44:06.125Z,25.80
2022-12-11T17:46:32.880Z,24.25
2022-12-11T17:49:01.826Z,24.30
2022-12-11T17:51:28.643Z,23.65
2022-12-11T17:53:56.147Z,23.65
2022-12-11T17:56:23.945Z,24.00
2022-12-11T17:58:50.680Z,23.33
2022-12-11T18:01:17.648Z,23.08
2022-12-11T18:03:44.408Z,25.58
2022-12-11T18:06:14.520Z,23.45
2022-12-11T18:08:41.599Z,23.70
2022-12-11T18:11:11.849Z,24.02
2022-12-11T18:13:39.318Z,22.92
2022-12-11T18:16:17.360Z,23.60
2022-12-11T18:18:46.199Z,24.08
2022-12-11T18:21:15.689Z,24.40
2022-12-11T18:23:42.561Z,22.40
2022-12-11T18:26:10.948Z,24.98
2022-12-11T18:28:37.621Z,23.60
2022-12-11T18:31:04.774Z,24.42
2022-12-11T18:33:32.204Z,24.25
2022-12-11T18:35:58.786Z,24.90
2022-12-11T18:38:25.477Z,24.05
2022-12-11T18:40:52.009Z,24.25
2022-12-11T18:43:18.534Z,23.73
2022-12-11T18:45:45.656Z,23.80
2022-12-11T18:48:13.225Z,24.23
2022-12-11T18:50:45.333Z,24.58
2022-12-11T18:53:12.000Z,24.60
2022-12-11T18:55:47.003Z,24.50
2022-12-11T18:58:16.364Z,23.85
2022-12-11T19:00:43.636Z,25.65
2022-12-11T19:03:11.802Z,24.63
2022-12-11T19:05:42.409Z,24.73
2022-12-11T19:08:10.310Z,24.70
2022-12-11T19:10:47.480Z,24.10
2022-12-11T19:13:14.300Z,25.38
2022-12-11T19:15:42.914Z,25.10
2022-12-11T19:18:10.438Z,23.48
2022-12-11T19:21:04.651Z,24.63
2022-12-11T19:23:25.629Z,25.48
2022-12-11T19:25:52.159Z,25.80
2022-12-11T19:28:18.950Z,25.88
2022-12-11T19:30:47.526Z,26.90
2022-12-11T19:33:14.277Z,25.63
2022-12-11T19:35:41.269Z,26.83
2022-12-11T19:38:08.456Z,26.48
2022-12-11T19:40:43.782Z,25.45
2022-12-11T19:43:11.026Z,24.75
2022-12-11T19:45:37.722Z,25.65
2022-12-11T19:48:04.618Z,26.38
2022-12-11T19:50:31.143Z,26.63
2022-12-11T19:52:57.665Z,25.83
2022-12-11T19:55:24.349Z,26.55
2022-12-11T19:57:50.854Z,25.50
2022-12-11T20:00:18.828Z,26.08
2022-12-11T20:02:45.392Z,27.30
2022-12-11T20:05:12.135Z,27.05
2022-12-11T20:07:38.913Z,25.25
2022-12-11T20:10:06.220Z,27.52
2022-12-11T20:12:32.747Z,26.52
2022-12-11T20:14:59.353Z,27.20
2022-12-11T20:17:25.903Z,27.75
2022-12-11T20:19:52.465Z,28.63
2022-12-11T20:22:19.365Z,27.38
2022-12-11T20:24:45.946Z,28.38
2022-12-11T20:27:12.568Z,27.65
2022-12-11T20:29:39.536Z,28.38
2022-12-11T20:32:07.344Z,27.65
2022-12-11T20:34:34.025Z,28.15
2022-12-11T20:37:00.592Z,28.73
2022-12-11T20:39:27.300Z,27.35
2022-12-11T20:41:53.828Z,26.30
2022-12-11T20:44:20.482Z,27.52
2022-12-11T20:46:47.107Z,26.73
2022-12-11T20:49:13.767Z,27.58
2022-12-11T20:51:40.866Z,29.30
2022-12-11T20:54:07.782Z,28.00
2022-12-11T20:56:34.257Z,26.67
2022-12-11T20:59:00.967Z,28.25
2022-12-11T21:01:31.652Z,27.73
2022-12-11T21:03:59.362Z,26.13
2022-12-11T21:06:34.693Z,27.80
2022-12-11T21:09:04.324Z,27.38
2022-12-11T21:11:30.928Z,26.08
2022-12-11T21:13:57.538Z,26.80
2022-12-11T21:16:24.563Z,27.42
2022-12-11T21:18:52.047Z,26.13
2022-12-11T21:21:18.719Z,27.52
2022-12-11T21:23:45.229Z,26.60
2022-12-11T21:26:12.807Z,27.00
2022-12-11T21:28:39.856Z,28.33
2022-12-11T21:31:13.058Z,27.60
2022-12-11T21:33:39.653Z,26.95
2022-12-11T21:36:07.371Z,28.15
2022-12-11T21:38:33.954Z,27.25
2022-12-11T21:41:13.655Z,27.90
2022-12-11T21:44:00.499Z,29.48
2022-12-11T21:46:28.935Z,27.98
2022-12-11T21:48:56.008Z,28.05
2022-12-11T21:51:35.693Z,28.02
2022-12-11T21:54:05.352Z,28.33
2022-12-11T21:56:32.079Z,29.42
2022-12-11T21:58:58.587Z,27.90
2022-12-11T22:01:29.177Z,28.60
2022-12-11T22:03:55.810Z,28.40
2022-12-11T22:06:22.632Z,28.08
2022-12-11T22:08:50.093Z,28.65
2022-12-11T22:11:22.989Z,29.20
2022-12-11T22:13:49.692Z,29.35
2022-12-11T22:16:16.305Z,30.83
2022-12-11T22:18:42.916Z,27.92
2022-12-11T22:21:09.570Z,29.67
2022-12-11T22:23:38.254Z,30.38
2022-12-11T22:26:05.940Z,28.58
2022-12-11T22:28:32.688Z,28.10
2022-12-11T22:30:59.479Z,28.17
2022-12-11T22:33:26.166Z,28.80
2022-12-11T22:36:00.298Z,29.80
2022-12-11T22:38:26.895Z,28.40
2022-12-11T22:40:54.821Z,28.77
2022-12-11T22:43:22.023Z,29.33
2022-12-11T22:45:48.746Z,29.42
2022-12-11T22:48:15.478Z,28.65
2022-12-11T22:50:42.924Z,28.20
2022-12-11T22:53:10.168Z,29.17
2022-12-11T22:55:39.899Z,28.83
2022-12-11T22:58:07.103Z,27.88
2022-12-11T23:00:34.252Z,28.65
2022-12-11T23:03:01.997Z,27.92
2022-12-11T23:05:29.265Z,28.15
2022-12-11T23:07:55.905Z,29.42
2022-12-11T23:10:22.673Z,29.02
2022-12-11T23:12:49.189Z,28.42
2022-12-11T23:15:15.856Z,29.02
2022-12-11T23:17:42.436Z,29.52
2022-12-11T23:20:09.458Z,28.85
2022-12-11T23:22:35.958Z,28.02
2022-12-11T23:25:02.581Z,27.92
2022-12-11T23:27:29.392Z,27.60
2022-12-11T23:29:56.112Z,31.48
2022-12-11T23:32:22.859Z,27.77
2022-12-11T23:34:49.365Z,27.90
2022-12-11T23:37:15.880Z,27.85
2022-12-11T23:39:42.386Z,29.83
2022-12-11T23:42:09.427Z,27.65
2022-12-11T23:44:35.942Z,28.10
2022-12-11T23:47:02.446Z,28.17
2022-12-11T23:49:28.957Z,28.25
2022-12-11T23:51:56.079Z,29.20
2022-12-11T23:54:22.664Z,28.55
2022-12-11T23:56:49.159Z,28.52
2022-12-11T23:59:15.772Z,28.50
